This is the latest recevied weather packets stored in our database for station/object KE9ADS. If no packets are shown the sender has not sent any weather packets the latest 10 day(s).
| Time | Temp. | Humidity | Pressure | Rain* | Wind** | Luminosity | Snow |
|---|---|---|---|---|---|---|---|
| 1777616079 | 7.22° C | 59% | 1018.7 hPa | 0 mm | - | 0 W/m² | - |
| 1777615473 | 7.78° C | 58% | 1018.6 hPa | 0 mm | - | 0 W/m² | - |
| 1777614874 | 7.78° C | 58% | 1018.5 hPa | 0 mm | - | 0 W/m² | - |
| 1777614272 | 8.33° C | 57% | 1018.5 hPa | 0 mm | - | 0 W/m² | - |
| 1777613670 | 8.89° C | 56% | 1018.5 hPa | 0 mm | - | 0 W/m² | - |
| 1777613069 | 8.89° C | 56% | 1018.4 hPa | 0 mm | - | 0 W/m² | - |
| 1777612467 | 8.89° C | 56% | 1018.2 hPa | 0 mm | - | 0 W/m² | - |
| 1777611864 | 8.89° C | 55% | 1018.3 hPa | 0 mm | - | 0 W/m² | - |
| 1777611262 | 9.44° C | 55% | 1018.1 hPa | 0 mm | - | 0 W/m² | - |
| 1777610660 | 9.44° C | 57% | 1018.1 hPa | 0 mm | - | 0 W/m² | - |
| 1777610056 | 9.44° C | 55% | 1018.1 hPa | 0 mm | - | 0 W/m² | - |
| 1777609456 | 9.44° C | 58% | 1018 hPa | 0 mm | - | 0 W/m² | - |
| 1777608850 | 9.44° C | 59% | 1018.1 hPa | 0 mm | - | 0 W/m² | - |
| 1777608250 | 9.44° C | 57% | 1017.9 hPa | 0 mm | - | 0 W/m² | - |
| 1777607649 | 9.44° C | 59% | 1018 hPa | 0 mm | - | 0 W/m² | - |
| 1777607048 | 8.89° C | 65% | 1017.8 hPa | 0 mm | - | 0 W/m² | - |
| 1777606445 | 8.33° C | 81% | 1018 hPa | 0 mm | - | 0 W/m² | - |
| 1777605843 | 8.33° C | 84% | 1017.8 hPa | 0 mm | - | 0 W/m² | - |
| 1777605238 | 8.33° C | 84% | 1018.1 hPa | 0 mm | - | 0 W/m² | - |
| 1777604636 | 8.33° C | 86% | 1017.9 hPa | 0 mm | - | 0 W/m² | - |
| 1777604032 | 7.78° C | 86% | 1017.8 hPa | 0 mm | - | 0 W/m² | - |
| 1777603432 | 7.78° C | 85% | 1018 hPa | 0 mm | - | 0 W/m² | - |
| 1777602829 | 8.33° C | 84% | 1017.7 hPa | 0 mm | - | 0 W/m² | - |
| 1777602227 | 8.33° C | 83% | 1017.8 hPa | 0 mm | - | 0 W/m² | - |
| 1777601623 | 8.33° C | 82% | 1017.8 hPa | 0 mm | - | 0 W/m² | - |
* Rain latest hour (hover to see other rain measurements)
** Current wind speed in m/s (hover to see current wind gust speed)